• Join FlightAware (Why Join?)
  • Login
  • US Flag 
Rudolph Flight #1: Arrived! 
03:12AM EST


 

Airport Tracker/Info


-or-


 

Live Flight TrackerFlight Track Log ✈ SWA2520 ✈ 26-Apr-2013 ✈ KSJC - KLAX

Flight Track Log - Related Links

Times and Time Zones

All times are in EDT time to prevent confusion due to time zone crossing. See the SWA2520 flight status page for this flight to view local times or setup timezone preferences in your user account.

Time Position Orientation Groundspeed Altitude Reporting Facility
EDT Latitude Longitude Course Direction KTS MPH feet Rate Location/Type
07:32PM 37.4000 -121.9667 15° North 181 208 2,100  Level Northern Cal TRACON
07:33PM 37.4500 -121.9500 15° North 238 274 4,900 1,440 Climbing Northern Cal TRACON
07:34PM 37.4167 -121.8833 122° Southeast 235 270 5,000 720 Climbing Northern Cal TRACON
07:35PM 37.3517 -121.8144 140° Southeast 233 268 6,700 2,340 Climbing Oakland Center
07:36PM 37.2936 -121.7461 137° Southeast 283 326 10,600 3,300 Climbing Oakland Center
07:38PM 37.2267 -121.6725 139° Southeast 315 362 13,500 3,300 Climbing Oakland Center
07:39PM 37.1383 -121.5703 137° Southeast 352 405 17,400 3,360 Climbing Oakland Center
07:40PM 37.0547 -121.4817 140° Southeast 389 448 20,400 2,940 Climbing Oakland Center
07:41PM 36.9731 -121.3914 139° Southeast 392 451 23,500 2,700 Climbing Oakland Center
07:42PM 36.8889 -121.2981 138° Southeast 402 463 25,900 2,220 Climbing Oakland Center
07:43PM 36.7894 -121.1956 140° Southeast 424 488 28,100 2,100 Climbing Oakland Center
07:44PM 36.6978 -121.0950 139° Southeast 438 504 30,300 2,280 Climbing Oakland Center
07:45PM 36.6061 -120.9944 139° Southeast 439 505 32,800 2,040 Climbing Oakland Center
07:46PM 36.5142 -120.8969 140° Southeast 435 501 34,500 1,020 Climbing Oakland Center
07:47PM 36.4225 -120.7969 139° Southeast 439 505 35,000 240 Climbing Oakland Center
07:48PM 36.3303 -120.6994 140° Southeast 437 503 35,000  Level Oakland Center
07:49PM 36.2369 -120.6000 139° Southeast 442 509 35,000  Level Oakland Center
07:50PM 36.1447 -120.5011 139° Southeast 439 505 35,000  Level Oakland Center
07:51PM 36.0325 -120.3811 139° Southeast 441 507 35,000  Level Oakland Center
07:52PM 35.9411 -120.2875 140° Southeast 423 487 35,000  Level Oakland Center
07:53PM 35.8475 -120.1892 140° Southeast 437 503 35,000  Level Oakland Center
07:54PM 35.7547 -120.0900 139° Southeast 438 504 35,000  Level Oakland Center
07:55PM 35.6603 -119.9936 140° Southeast 438 504 35,000  Level Oakland Center
07:56PM 35.5603 -119.9036 144° Southeast 440 506 35,000  Level Oakland Center
07:57PM 35.4592 -119.8150 144° Southeast 440 506 35,000  Level Oakland Center
07:58PM 35.3381 -119.7117 145° Southeast 442 509 35,000  Level Los Angeles Center
07:59PM 35.2367 -119.6244 145° Southeast 442 509 35,000 -180 Level Los Angeles Center
08:00PM 35.1358 -119.5378 145° Southeast 443 510 34,700 -1,440 Descending Los Angeles Center
08:01PM 35.0350 -119.4533 146° Southeast 439 505 32,100 -2,580 Descending Los Angeles Center
08:02PM 34.9336 -119.3664 145° Southeast 442 509 29,400 -2,700 Descending Los Angeles Center
08:03PM 34.8150 -119.2658 145° Southeast 435 501 26,600 -2,400 Descending Los Angeles Center
08:04PM 34.7214 -119.1856 145° Southeast 416 479 24,500 -1,980 Descending Los Angeles Center
08:05PM 34.6378 -119.1147 145° Southeast 406 467 22,600 -2,100 Descending Los Angeles Center
08:06PM 34.5292 -119.0269 146° Southeast 384 442 20,200 -2,160 Descending Los Angeles Center
08:07PM 34.4417 -118.9539 145° Southeast 384 442 18,200 -1,920 Descending Los Angeles Center
08:08PM 34.3561 -118.8828 146° Southeast 372 428 16,200 -2,040 Descending Los Angeles Center
08:10PM 34.2592 -118.8461 163° South 369 425 14,000 -2,100 Descending Los Angeles Center
08:11PM 34.1647 -118.8108 163° South 358 412 11,900 -1,740 Descending Los Angeles Center
08:12PM 34.0644 -118.7736 163° South 335 386 10,500 -960 Descending Los Angeles Center
08:13PM 34.0317 -118.6861 114° Southeast 271 312 10,000 -900 Descending Los Angeles Center
08:14PM 34.0228 -118.5953 97° East 272 313 8,700 -1,440 Descending Los Angeles Center
08:15PM 34.0139 -118.5028 97° East 277 319 7,100 -1,320 Descending Los Angeles Center
08:16PM 34.0142 -118.4169 90° East 262 302 6,000 -1,560 Descending Los Angeles Center
08:17PM 34.0247 -118.3264 82° East 264 304 3,900 -1,800 Descending Los Angeles Center
08:18PM 34.0214 -118.2447 93° East 255 293 2,300 -960 Descending Los Angeles Center
08:19PM 33.9708 -118.2842 213° Southwest 205 236 2,000 -480 Descending Los Angeles Center
08:20PM 33.9578 -118.3325 252° West 174 200 1,300 -720 Descending Los Angeles Center
08:21PM 33.9558 -118.3747 267° West 146 168 600 -600 Descending Los Angeles Center
08:22PM 33.9508 -118.4197 262° West 135 155 100 -540 Descending Los Angeles Center
08:24PM 33.9425 -118.4081 231° Southwest  Level Estimated